Terminal Aerodrome Forecast
Issued by NWS Pendleton, OR

Home | Current Version | Previous Version | Text Only | Print | Product List | Glossary On
Versions: 1 2 3 4 5 6 7 8 9 10 11 12 13 14 15 16
000
FTUS46 KPDT 212326
TAFPDT
TAF
KPDT 212326Z 2200/2224 12008KT P6SM VCSH SCT040 BKN060
     FM220400 14008KT P6SM SCT035 OVC050
     FM221400 17011KT P6SM -SHRA SCT030 BKN050
     FM222200 14008KT P6SM VCSH SCT050=

USA.gov is the U.S. government's official web portal to all federal, state and local government web resources and services.